createdAt,value
2022-11-08T00:00:49.730Z,11.08
2022-11-08T00:01:52.005Z,11.08
2022-11-08T00:02:53.612Z,11.11
2022-11-08T00:03:55.189Z,11.14
2022-11-08T00:04:56.819Z,11.21
2022-11-08T00:06:17.117Z,11.21
2022-11-08T00:07:37.169Z,11.17
2022-11-08T00:08:57.673Z,11.22
2022-11-08T00:10:17.547Z,11.19
2022-11-08T00:11:37.733Z,11.15
2022-11-08T00:12:57.731Z,11.13
2022-11-08T00:13:59.990Z,11.15
2022-11-08T00:15:02.621Z,11.16
2022-11-08T00:16:04.225Z,11.17
2022-11-08T00:17:08.640Z,11.22
2022-11-08T00:18:10.149Z,11.27
2022-11-08T00:19:11.859Z,11.34
2022-11-08T00:20:13.494Z,11.40
2022-11-08T00:21:15.059Z,11.45
2022-11-08T00:22:17.694Z,11.49
2022-11-08T00:23:19.217Z,11.51
2022-11-08T00:24:20.763Z,11.51
2022-11-08T00:25:22.351Z,11.52
2022-11-08T00:26:23.881Z,11.48
2022-11-08T00:27:26.456Z,11.46
2022-11-08T00:28:27.967Z,11.48
2022-11-08T00:29:29.532Z,11.54
2022-11-08T00:30:31.078Z,11.61
2022-11-08T00:31:32.588Z,11.65
2022-11-08T00:32:34.191Z,11.70
2022-11-08T00:33:35.731Z,11.74
2022-11-08T00:34:37.355Z,11.77
2022-11-08T00:35:38.864Z,11.80
2022-11-08T00:36:40.386Z,11.84
2022-11-08T00:37:41.946Z,11.88
2022-11-08T00:38:44.378Z,11.90
2022-11-08T00:39:46.223Z,11.91
2022-11-08T00:40:47.792Z,11.91
2022-11-08T00:41:49.346Z,11.93
2022-11-08T00:42:50.925Z,11.96
2022-11-08T00:43:52.556Z,11.99
2022-11-08T00:44:54.115Z,12.01
2022-11-08T00:45:55.632Z,12.04
2022-11-08T00:46:57.147Z,12.06
2022-11-08T00:47:58.647Z,12.08
2022-11-08T00:49:00.204Z,12.10
2022-11-08T00:50:01.870Z,12.11
2022-11-08T00:51:06.218Z,12.18
2022-11-08T00:52:07.807Z,12.22
2022-11-08T00:53:09.755Z,12.26
2022-11-08T00:54:15.679Z,12.30
2022-11-08T00:55:17.191Z,12.31
2022-11-08T00:56:18.698Z,12.30
2022-11-08T00:57:22.294Z,12.32
2022-11-08T00:58:32.842Z,12.33
2022-11-08T00:59:34.384Z,12.33
2022-11-08T01:00:35.987Z,12.32
2022-11-08T01:01:37.689Z,12.30
2022-11-08T01:02:39.327Z,12.29
2022-11-08T01:03:40.963Z,12.30
2022-11-08T01:04:42.516Z,12.32
2022-11-08T01:05:44.511Z,12.36
2022-11-08T01:06:46.715Z,12.36
2022-11-08T01:07:48.271Z,12.37
2022-11-08T01:08:50.207Z,12.36
2022-11-08T01:09:51.731Z,12.39
2022-11-08T01:10:53.345Z,12.41
2022-11-08T01:11:54.870Z,12.38
2022-11-08T01:12:56.630Z,12.35
2022-11-08T01:14:00.148Z,12.32
2022-11-08T01:15:01.761Z,12.28
2022-11-08T01:16:07.976Z,12.22
2022-11-08T01:17:09.527Z,12.15
2022-11-08T01:18:13.814Z,12.09
2022-11-08T01:19:15.369Z,11.99
2022-11-08T01:20:17.059Z,11.95
2022-11-08T01:21:18.982Z,11.91
2022-11-08T01:22:20.539Z,11.87
2022-11-08T01:23:22.057Z,11.83
2022-11-08T01:24:23.587Z,11.78
2022-11-08T01:25:25.506Z,11.74
2022-11-08T01:26:29.237Z,11.73
2022-11-08T01:27:30.935Z,11.66
2022-11-08T01:28:33.736Z,11.66
2022-11-08T01:29:35.262Z,11.69
2022-11-08T01:30:38.522Z,11.68
2022-11-08T01:31:40.026Z,11.69
2022-11-08T01:32:41.562Z,11.70
2022-11-08T01:33:48.461Z,11.67
2022-11-08T01:34:52.564Z,11.60
2022-11-08T01:35:54.071Z,11.60
2022-11-08T01:36:55.603Z,11.62
2022-11-08T01:37:57.124Z,11.60
2022-11-08T01:38:58.720Z,11.59
2022-11-08T01:40:00.324Z,11.60
2022-11-08T01:41:02.026Z,11.64
2022-11-08T01:42:03.728Z,11.69
2022-11-08T01:43:31.679Z,11.72
2022-11-08T01:44:33.198Z,11.76
2022-11-08T01:46:09.788Z,11.83
2022-11-08T01:47:11.280Z,11.86
2022-11-08T01:48:12.806Z,11.83
2022-11-08T01:49:35.096Z,11.81
2022-11-08T01:50:36.739Z,11.78
2022-11-08T01:52:00.167Z,11.72
2022-11-08T01:53:01.716Z,11.67
2022-11-08T01:54:06.799Z,11.67
2022-11-08T01:55:20.324Z,11.68
2022-11-08T01:56:21.928Z,11.71
2022-11-08T01:57:43.159Z,11.72
2022-11-08T01:58:49.828Z,11.74
2022-11-08T01:59:55.984Z,11.74
2022-11-08T02:00:59.811Z,11.75
2022-11-08T02:02:01.817Z,11.73
2022-11-08T02:03:05.270Z,11.71
2022-11-08T02:04:07.011Z,11.71
2022-11-08T02:05:25.001Z,11.69
2022-11-08T02:06:29.554Z,11.68
2022-11-08T02:07:34.333Z,11.68
2022-11-08T02:08:41.823Z,11.64
2022-11-08T02:09:46.626Z,11.65
2022-11-08T02:10:50.959Z,11.56
2022-11-08T02:11:53.719Z,11.51
2022-11-08T02:12:56.017Z,11.51
2022-11-08T02:13:58.295Z,11.51
2022-11-08T02:15:00.084Z,11.49
2022-11-08T02:16:01.990Z,11.48
2022-11-08T02:17:04.284Z,11.49
2022-11-08T02:18:06.306Z,11.54
2022-11-08T02:19:12.058Z,11.61
2022-11-08T02:20:13.722Z,11.67
2022-11-08T02:21:28.478Z,11.74
2022-11-08T02:22:38.971Z,11.79
2022-11-08T02:23:51.751Z,11.82
2022-11-08T02:24:54.318Z,11.84
2022-11-08T02:25:56.174Z,11.83
2022-11-08T02:26:57.805Z,11.80
2022-11-08T02:27:59.327Z,11.78
2022-11-08T02:29:23.646Z,11.74
2022-11-08T02:30:25.631Z,11.68
2022-11-08T02:31:27.143Z,11.69
2022-11-08T02:32:38.095Z,11.70
2022-11-08T02:33:40.540Z,11.71
2022-11-08T02:34:47.062Z,11.65
2022-11-08T02:35:52.178Z,11.51
2022-11-08T02:36:54.238Z,11.46
2022-11-08T02:37:55.847Z,11.34
2022-11-08T02:38:58.100Z,11.22
2022-11-08T02:39:59.773Z,11.19
2022-11-08T02:41:01.331Z,11.17
2022-11-08T02:42:03.369Z,11.18
2022-11-08T02:43:04.878Z,11.19
2022-11-08T02:44:06.463Z,11.10
2022-11-08T02:45:08.484Z,11.01
2022-11-08T02:46:10.177Z,11.04
2022-11-08T02:47:11.989Z,11.04
2022-11-08T02:48:14.424Z,10.89
2022-11-08T02:49:16.137Z,10.86
2022-11-08T02:50:17.774Z,10.86
2022-11-08T02:51:19.402Z,10.93
2022-11-08T02:52:21.034Z,10.97
2022-11-08T02:53:22.755Z,11.01
2022-11-08T02:54:24.281Z,11.07
2022-11-08T02:55:25.956Z,11.10
2022-11-08T02:56:27.580Z,11.14
2022-11-08T02:57:29.107Z,11.19
2022-11-08T02:58:30.682Z,11.23
2022-11-08T02:59:32.228Z,11.24
2022-11-08T03:00:34.686Z,11.24
2022-11-08T03:01:36.310Z,11.23
2022-11-08T03:02:37.975Z,11.25
2022-11-08T03:03:39.593Z,11.25
2022-11-08T03:04:41.267Z,11.29
2022-11-08T03:05:43.458Z,11.27
2022-11-08T03:06:45.046Z,11.18
2022-11-08T03:07:46.775Z,11.10
2022-11-08T03:08:48.294Z,10.96
2022-11-08T03:09:49.801Z,10.85
2022-11-08T03:10:51.454Z,10.82
2022-11-08T03:11:53.452Z,10.81
2022-11-08T03:12:56.705Z,10.87
2022-11-08T03:13:58.359Z,10.93
2022-11-08T03:14:59.871Z,10.95
2022-11-08T03:16:06.070Z,10.99
2022-11-08T03:17:07.650Z,11.07
2022-11-08T03:18:09.185Z,11.13
2022-11-08T03:19:12.133Z,11.19
2022-11-08T03:20:13.643Z,11.24
2022-11-08T03:21:15.193Z,11.25
2022-11-08T03:22:16.809Z,11.23
2022-11-08T03:23:18.366Z,11.26
2022-11-08T03:24:19.882Z,11.28
2022-11-08T03:25:21.509Z,11.30
2022-11-08T03:26:23.038Z,11.34
2022-11-08T03:27:24.975Z,11.30
2022-11-08T03:28:26.683Z,11.23
2022-11-08T03:29:28.457Z,11.08
2022-11-08T03:30:30.108Z,11.00
2022-11-08T03:31:31.611Z,10.99
2022-11-08T03:32:33.554Z,11.04
2022-11-08T03:33:35.392Z,11.08
2022-11-08T03:34:36.958Z,11.16
2022-11-08T03:35:38.562Z,11.20
2022-11-08T03:36:40.063Z,11.25
2022-11-08T03:37:41.801Z,11.26
2022-11-08T03:38:43.368Z,11.29
2022-11-08T03:39:44.883Z,11.31
2022-11-08T03:40:47.082Z,11.34
2022-11-08T03:41:48.615Z,11.34
2022-11-08T03:42:50.208Z,11.34
2022-11-08T03:43:51.806Z,11.35
2022-11-08T03:44:53.356Z,11.31
2022-11-08T03:45:54.887Z,11.25
2022-11-08T03:46:56.661Z,11.20
2022-11-08T03:47:58.299Z,11.17
2022-11-08T03:48:59.819Z,11.08
2022-11-08T03:50:01.334Z,11.00
2022-11-08T03:51:02.871Z,10.94
2022-11-08T03:52:04.584Z,10.94
2022-11-08T03:53:06.137Z,10.98
2022-11-08T03:54:07.690Z,11.00
2022-11-08T03:55:10.715Z,11.05
2022-11-08T03:56:12.254Z,11.09
2022-11-08T03:57:13.781Z,11.14
2022-11-08T03:58:15.540Z,11.19
2022-11-08T03:59:17.431Z,11.23
2022-11-08T04:00:22.460Z,11.26
2022-11-08T04:01:24.184Z,11.27
2022-11-08T04:02:25.912Z,11.26
2022-11-08T04:03:27.495Z,11.24
2022-11-08T04:04:29.022Z,11.24
2022-11-08T04:05:32.500Z,11.21
2022-11-08T04:06:34.451Z,11.14
2022-11-08T04:07:36.499Z,11.12
2022-11-08T04:08:38.189Z,11.06
2022-11-08T04:09:43.998Z,10.97
2022-11-08T04:10:45.551Z,10.87
2022-11-08T04:12:05.446Z,10.80
2022-11-08T04:13:27.067Z,10.77
2022-11-08T04:14:47.515Z,10.63
2022-11-08T04:15:54.913Z,10.62
2022-11-08T04:16:56.688Z,10.65
2022-11-08T04:18:17.704Z,10.66
2022-11-08T04:19:38.286Z,10.69
2022-11-08T04:21:03.672Z,10.68
2022-11-08T04:22:06.463Z,10.69
2022-11-08T04:23:08.003Z,10.66
2022-11-08T04:24:09.558Z,10.66
2022-11-08T04:25:11.086Z,10.64
2022-11-08T04:26:12.786Z,10.61
2022-11-08T04:27:14.315Z,10.58
2022-11-08T04:28:17.410Z,10.62
2022-11-08T04:29:19.236Z,10.62
2022-11-08T04:30:20.916Z,10.64
2022-11-08T04:31:22.565Z,10.64
2022-11-08T04:32:24.112Z,10.60
2022-11-08T04:33:25.774Z,10.59
2022-11-08T04:34:27.311Z,10.55
2022-11-08T04:35:30.357Z,10.46
2022-11-08T04:36:33.428Z,10.42
2022-11-08T04:37:34.987Z,10.35
2022-11-08T04:38:36.949Z,10.25
2022-11-08T04:39:38.790Z,10.20
2022-11-08T04:40:40.329Z,10.19
2022-11-08T04:41:41.871Z,10.18
2022-11-08T04:42:46.240Z,10.19
2022-11-08T04:43:48.886Z,10.12
2022-11-08T04:44:50.391Z,10.12
2022-11-08T04:45:51.926Z,10.11
2022-11-08T04:46:53.622Z,10.07
2022-11-08T04:47:55.192Z,10.00
2022-11-08T04:48:59.192Z,9.95
2022-11-08T04:50:00.734Z,9.90
2022-11-08T04:51:12.132Z,9.90
2022-11-08T04:52:15.420Z,9.84
2022-11-08T04:53:16.936Z,9.74
2022-11-08T04:54:18.460Z,9.69
2022-11-08T04:55:21.394Z,9.65
2022-11-08T04:56:24.241Z,9.65
2022-11-08T04:57:25.795Z,9.65
2022-11-08T04:58:28.660Z,9.71
2022-11-08T04:59:30.268Z,9.79
2022-11-08T05:00:31.768Z,9.85
2022-11-08T05:01:33.326Z,9.93
2022-11-08T05:02:35.052Z,10.02
2022-11-08T05:03:36.988Z,10.13
2022-11-08T05:04:38.532Z,10.22
2022-11-08T05:05:40.058Z,10.28
2022-11-08T05:06:41.630Z,10.36
2022-11-08T05:07:46.054Z,10.42
2022-11-08T05:08:47.786Z,10.47
2022-11-08T05:09:49.317Z,10.50
2022-11-08T05:10:50.880Z,10.53
2022-11-08T05:11:52.550Z,10.60
2022-11-08T05:12:57.050Z,10.65
2022-11-08T05:13:58.994Z,10.75
2022-11-08T05:15:00.547Z,10.84
2022-11-08T05:16:07.163Z,10.91
2022-11-08T05:17:08.724Z,10.95
2022-11-08T05:18:10.453Z,10.99
2022-11-08T05:19:13.328Z,11.03
2022-11-08T05:20:33.574Z,11.03
2022-11-08T05:21:53.319Z,11.06
2022-11-08T05:23:19.241Z,11.14
2022-11-08T05:24:20.775Z,11.15
2022-11-08T05:25:22.292Z,11.16
2022-11-08T05:26:24.136Z,11.18
2022-11-08T05:27:25.675Z,11.19
2022-11-08T05:28:32.425Z,11.17
2022-11-08T05:29:36.467Z,11.12
2022-11-08T05:30:42.022Z,11.01
2022-11-08T05:31:43.574Z,10.89
2022-11-08T05:32:45.118Z,10.81
2022-11-08T05:33:47.001Z,10.79
2022-11-08T05:34:48.598Z,10.63
2022-11-08T05:35:50.500Z,10.58
2022-11-08T05:36:52.027Z,10.65
2022-11-08T05:37:53.573Z,10.72
2022-11-08T05:38:55.838Z,10.78
2022-11-08T05:39:57.339Z,10.81
2022-11-08T05:41:07.331Z,10.71
2022-11-08T05:42:09.217Z,10.58
2022-11-08T05:43:10.846Z,10.42
2022-11-08T05:44:12.383Z,10.21
2022-11-08T05:45:13.924Z,10.13
2022-11-08T05:46:16.757Z,10.14
2022-11-08T05:47:18.287Z,10.21
2022-11-08T05:48:20.046Z,10.34
2022-11-08T05:49:21.824Z,10.45
2022-11-08T05:50:25.058Z,10.57
2022-11-08T05:51:26.762Z,10.69
2022-11-08T05:52:28.386Z,10.74
2022-11-08T05:53:30.280Z,10.81
2022-11-08T05:54:32.471Z,10.87
2022-11-08T05:55:34.036Z,10.90
2022-11-08T05:56:35.612Z,10.94
2022-11-08T05:57:37.158Z,11.00
2022-11-08T05:58:38.694Z,11.05
2022-11-08T05:59:40.291Z,11.13
2022-11-08T06:00:41.971Z,11.19
2022-11-08T06:01:43.623Z,11.20
2022-11-08T06:02:45.211Z,11.13
2022-11-08T06:03:47.820Z,11.07
2022-11-08T06:04:50.084Z,11.11
2022-11-08T06:05:51.641Z,11.13
2022-11-08T06:06:53.531Z,11.08
2022-11-08T06:07:55.305Z,11.06
2022-11-08T06:08:56.925Z,11.02
2022-11-08T06:09:58.443Z,11.02
2022-11-08T06:11:08.163Z,10.97
2022-11-08T06:12:09.730Z,10.95
2022-11-08T06:13:11.367Z,11.03
2022-11-08T06:14:13.456Z,11.06
2022-11-08T06:15:15.146Z,11.03
2022-11-08T06:16:18.178Z,10.99
2022-11-08T06:17:19.962Z,11.05
2022-11-08T06:18:21.654Z,11.05
2022-11-08T06:19:23.406Z,11.02
2022-11-08T06:20:25.017Z,11.06
2022-11-08T06:21:27.363Z,11.12
2022-11-08T06:22:32.136Z,11.10
2022-11-08T06:23:34.347Z,11.14
2022-11-08T06:24:36.307Z,11.20
2022-11-08T06:25:37.945Z,11.25
2022-11-08T06:26:39.585Z,11.31
2022-11-08T06:27:41.134Z,11.34
2022-11-08T06:28:42.707Z,11.30
2022-11-08T06:29:44.327Z,11.32
2022-11-08T06:30:46.417Z,11.38
2022-11-08T06:31:47.935Z,11.44
2022-11-08T06:32:49.448Z,11.47
2022-11-08T06:33:51.008Z,11.46
2022-11-08T06:34:52.959Z,11.58
2022-11-08T06:35:54.622Z,11.59
2022-11-08T06:36:58.715Z,11.41
2022-11-08T06:38:04.619Z,11.41
2022-11-08T06:39:09.761Z,11.44
2022-11-08T06:40:11.636Z,11.49
2022-11-08T06:41:18.827Z,11.49
2022-11-08T06:42:20.445Z,11.52
2022-11-08T06:43:22.450Z,11.53
2022-11-08T06:44:24.359Z,11.58
2022-11-08T06:45:26.695Z,11.73
2022-11-08T06:46:28.334Z,11.83
2022-11-08T06:47:29.857Z,11.90
2022-11-08T06:48:35.941Z,11.92
2022-11-08T06:49:37.819Z,12.02
2022-11-08T06:50:39.569Z,12.11
2022-11-08T06:51:41.129Z,12.17
2022-11-08T06:52:42.648Z,12.29
2022-11-08T06:53:44.697Z,12.42
2022-11-08T06:54:46.268Z,12.51
2022-11-08T06:55:47.776Z,12.61
2022-11-08T06:56:49.631Z,12.60
2022-11-08T06:57:51.561Z,12.55
2022-11-08T06:58:53.167Z,12.48
2022-11-08T06:59:54.711Z,12.53
2022-11-08T07:00:56.409Z,12.58
2022-11-08T07:01:58.129Z,12.67
2022-11-08T07:03:02.421Z,12.77
2022-11-08T07:04:04.212Z,12.90
2022-11-08T07:05:05.963Z,13.01
2022-11-08T07:06:07.957Z,12.90
2022-11-08T07:07:09.457Z,12.98
2022-11-08T07:08:11.367Z,13.09
2022-11-08T07:09:13.056Z,13.18
2022-11-08T07:10:14.585Z,13.12
2022-11-08T07:11:16.649Z,12.90
2022-11-08T07:12:18.450Z,12.77
2022-11-08T07:13:20.594Z,12.85
2022-11-08T07:14:22.518Z,12.96
2022-11-08T07:15:24.049Z,13.16
2022-11-08T07:16:25.727Z,13.29
2022-11-08T07:17:27.236Z,13.34
2022-11-08T07:18:29.383Z,13.44
2022-11-08T07:19:30.971Z,13.48
2022-11-08T07:20:33.323Z,13.55
2022-11-08T07:21:34.853Z,13.55
2022-11-08T07:22:36.516Z,13.64
2022-11-08T07:23:38.023Z,13.75
2022-11-08T07:24:39.523Z,13.75
2022-11-08T07:25:41.649Z,13.78
2022-11-08T07:26:43.213Z,13.77
2022-11-08T07:27:44.777Z,13.82
2022-11-08T07:28:46.313Z,13.86
2022-11-08T07:29:47.905Z,13.91
2022-11-08T07:30:49.741Z,14.05
2022-11-08T07:31:51.245Z,14.12
2022-11-08T07:32:52.896Z,14.23
2022-11-08T07:33:54.476Z,14.39
2022-11-08T07:34:55.989Z,14.45
2022-11-08T07:35:57.492Z,14.54
2022-11-08T07:36:59.007Z,14.63
2022-11-08T07:38:00.849Z,14.73
2022-11-08T07:39:06.418Z,14.82
2022-11-08T07:40:09.078Z,14.90
2022-11-08T07:41:12.667Z,14.86
2022-11-08T07:42:14.398Z,14.90
2022-11-08T07:43:16.668Z,15.00
2022-11-08T07:44:18.194Z,15.10
2022-11-08T07:45:19.875Z,15.22
2022-11-08T07:46:21.395Z,15.29
2022-11-08T07:47:22.937Z,15.34
2022-11-08T07:48:25.842Z,15.39
2022-11-08T07:49:27.351Z,15.42
2022-11-08T07:50:29.450Z,15.41
2022-11-08T07:51:30.967Z,15.39
2022-11-08T07:52:32.601Z,15.46
2022-11-08T07:53:34.128Z,15.51
2022-11-08T07:54:35.641Z,15.59
2022-11-08T07:55:39.037Z,15.58
2022-11-08T07:56:40.627Z,15.72
2022-11-08T07:57:42.183Z,15.83
2022-11-08T07:58:43.758Z,15.87
2022-11-08T07:59:45.459Z,15.85
2022-11-08T08:00:49.843Z,15.89
2022-11-08T08:01:51.421Z,16.02
2022-11-08T08:03:01.089Z,15.99
2022-11-08T08:04:02.777Z,16.04
2022-11-08T08:05:04.697Z,16.10
2022-11-08T08:06:06.375Z,16.15
2022-11-08T08:07:08.107Z,16.25
2022-11-08T08:08:11.624Z,16.26
2022-11-08T08:09:13.309Z,16.26
2022-11-08T08:10:14.903Z,16.28
2022-11-08T08:11:16.613Z,16.33
2022-11-08T08:12:18.159Z,16.25
2022-11-08T08:13:20.025Z,16.29
2022-11-08T08:14:21.999Z,16.35
2022-11-08T08:15:24.396Z,16.26
2022-11-08T08:16:25.966Z,16.23
2022-11-08T08:17:27.493Z,16.28
2022-11-08T08:18:30.206Z,16.30
2022-11-08T08:19:31.799Z,16.33
2022-11-08T08:20:34.964Z,16.21
2022-11-08T08:21:36.745Z,16.09
2022-11-08T08:22:46.020Z,16.20
2022-11-08T08:23:47.667Z,16.29
2022-11-08T08:24:49.243Z,16.41
2022-11-08T08:25:50.750Z,16.55
2022-11-08T08:26:52.764Z,16.71
2022-11-08T08:27:56.714Z,16.75
2022-11-08T08:28:58.367Z,16.78
2022-11-08T08:29:59.901Z,16.73
2022-11-08T08:31:01.612Z,16.70
2022-11-08T08:32:03.221Z,16.82
2022-11-08T08:33:27.331Z,16.87
2022-11-08T08:34:29.779Z,16.93
2022-11-08T08:35:31.332Z,16.69
2022-11-08T08:36:32.882Z,16.42
2022-11-08T08:37:34.427Z,16.15
2022-11-08T08:38:41.409Z,15.90
2022-11-08T08:39:46.592Z,15.64
2022-11-08T08:40:48.150Z,15.56
2022-11-08T08:41:49.653Z,15.67
2022-11-08T08:42:51.186Z,15.71
2022-11-08T08:43:52.707Z,15.49
2022-11-08T08:44:54.543Z,15.54
2022-11-08T08:46:05.038Z,15.62
2022-11-08T08:47:06.555Z,15.85
2022-11-08T08:48:08.115Z,16.10
2022-11-08T08:49:09.706Z,16.21
2022-11-08T08:50:11.286Z,16.38
2022-11-08T08:51:12.980Z,16.45
2022-11-08T08:52:14.685Z,16.55
2022-11-08T08:53:16.867Z,16.67
2022-11-08T08:54:18.744Z,16.70
2022-11-08T08:55:20.967Z,16.79
2022-11-08T08:56:22.522Z,16.80
2022-11-08T08:57:24.060Z,16.84
2022-11-08T08:58:25.571Z,16.94
2022-11-08T09:02:14.430Z,17.24
2022-11-08T09:03:16.448Z,17.32
2022-11-08T09:04:18.268Z,17.36
2022-11-08T09:05:19.869Z,17.45
2022-11-08T09:06:21.446Z,17.55
2022-11-08T09:07:23.097Z,17.67
2022-11-08T09:08:24.918Z,17.76
2022-11-08T09:09:26.441Z,17.82
2022-11-08T09:10:28.532Z,17.82
2022-11-08T09:11:30.186Z,17.81
2022-11-08T09:12:32.462Z,17.84
2022-11-08T09:13:34.097Z,17.90
2022-11-08T09:14:35.636Z,17.87
2022-11-08T09:15:39.357Z,17.94
2022-11-08T09:16:41.073Z,17.96
2022-11-08T09:17:43.026Z,18.00
2022-11-08T09:18:44.648Z,18.07
2022-11-08T09:19:46.474Z,17.97
2022-11-08T09:20:48.222Z,17.94
2022-11-08T09:21:49.821Z,17.85
2022-11-08T09:22:51.551Z,17.83
2022-11-08T09:23:53.187Z,17.75
2022-11-08T09:24:54.811Z,17.72
2022-11-08T09:26:06.353Z,17.75
2022-11-08T09:27:08.000Z,17.80
2022-11-08T09:28:10.193Z,17.76
2022-11-08T09:29:11.789Z,17.69
2022-11-08T09:30:13.479Z,17.67
2022-11-08T09:31:15.424Z,17.71
2022-11-08T09:32:24.713Z,17.76
2022-11-08T09:33:35.521Z,17.77
2022-11-08T09:34:37.116Z,17.77
2022-11-08T09:35:38.654Z,17.79
2022-11-08T09:36:40.220Z,17.78
2022-11-08T09:37:45.573Z,17.83
2022-11-08T09:38:50.291Z,17.88
2022-11-08T09:39:52.060Z,17.98
2022-11-08T09:41:00.260Z,18.07
2022-11-08T09:42:26.635Z,18.05
2022-11-08T09:43:53.439Z,17.96
2022-11-08T09:45:05.252Z,17.92
2022-11-08T09:46:11.874Z,17.91
2022-11-08T09:47:24.774Z,17.82
2022-11-08T09:48:28.578Z,17.77
2022-11-08T09:49:36.291Z,17.75
2022-11-08T09:50:47.058Z,17.82
2022-11-08T09:51:50.083Z,17.85
2022-11-08T09:53:25.832Z,17.82
2022-11-08T09:54:41.805Z,17.86
2022-11-08T09:56:01.678Z,17.92
2022-11-08T09:57:05.422Z,17.95
2022-11-08T09:58:21.241Z,17.94
2022-11-08T09:59:38.062Z,18.03
2022-11-08T10:00:40.827Z,18.08
2022-11-08T10:01:42.802Z,17.90
2022-11-08T10:02:44.721Z,17.86
2022-11-08T10:03:54.130Z,17.81
2022-11-08T10:05:00.728Z,17.76
2022-11-08T10:06:08.628Z,17.77
2022-11-08T10:07:41.525Z,17.88
2022-11-08T10:09:21.696Z,17.95
2022-11-08T10:10:34.887Z,17.96
2022-11-08T10:11:46.623Z,18.02
2022-11-08T10:13:18.658Z,18.06
2022-11-08T10:15:04.759Z,18.09
2022-11-08T10:16:43.878Z,18.08
2022-11-08T10:18:03.591Z,18.08
2022-11-08T10:19:35.084Z,18.09
2022-11-08T10:20:57.387Z,18.12
2022-11-08T10:22:27.991Z,18.13
2022-11-08T10:23:40.879Z,18.08
2022-11-08T10:25:00.939Z,18.01
2022-11-08T10:26:13.364Z,18.03
2022-11-08T10:27:22.355Z,18.13
2022-11-08T10:28:39.533Z,18.24
2022-11-08T10:29:44.870Z,18.31
2022-11-08T10:30:51.027Z,18.35
2022-11-08T10:32:01.609Z,18.30
2022-11-08T10:33:19.949Z,18.19
2022-11-08T10:34:25.819Z,18.16
2022-11-08T10:35:49.777Z,18.14
2022-11-08T10:36:58.159Z,18.18
2022-11-08T10:38:00.974Z,18.24
2022-11-08T10:39:15.782Z,18.35
2022-11-08T10:40:17.327Z,18.30
2022-11-08T10:41:23.555Z,18.30
2022-11-08T10:42:59.416Z,18.40
2022-11-08T10:44:16.754Z,18.29
2022-11-08T10:45:18.423Z,18.35
2022-11-08T10:46:38.445Z,18.37
2022-11-08T10:47:41.031Z,18.50
2022-11-08T10:48:42.593Z,18.53
2022-11-08T10:49:44.186Z,18.55
2022-11-08T10:50:49.532Z,18.57
2022-11-08T10:51:55.671Z,18.58
2022-11-08T10:53:03.614Z,18.72
2022-11-08T10:55:38.532Z,18.59
2022-11-08T10:57:00.459Z,18.63
2022-11-08T10:58:02.098Z,18.65
2022-11-08T10:59:03.906Z,18.65
2022-11-08T11:00:20.701Z,18.63
2022-11-08T11:01:24.637Z,18.56
2022-11-08T11:02:30.061Z,18.53
2022-11-08T11:03:31.924Z,18.51
2022-11-08T11:04:34.905Z,18.58
2022-11-08T11:05:55.094Z,18.57
2022-11-08T11:07:24.229Z,18.50
2022-11-08T11:08:26.425Z,18.59
2022-11-08T11:09:28.436Z,18.55
2022-11-08T11:10:35.436Z,18.54
2022-11-08T11:11:38.977Z,18.53
2022-11-08T11:12:40.531Z,18.54
2022-11-08T11:13:42.079Z,18.58
2022-11-08T11:14:43.605Z,18.65
2022-11-08T11:16:00.212Z,18.73
2022-11-08T11:17:07.981Z,18.69
2022-11-08T11:18:32.254Z,18.70
2022-11-08T11:19:34.689Z,18.74
2022-11-08T11:20:36.281Z,18.78
2022-11-08T11:21:40.023Z,18.92
2022-11-08T11:22:46.148Z,18.91
2022-11-08T11:23:52.068Z,18.87
2022-11-08T11:24:54.829Z,18.85
2022-11-08T11:25:56.414Z,18.72
2022-11-08T11:26:57.884Z,18.64
2022-11-08T11:28:00.956Z,18.55
2022-11-08T11:29:26.402Z,18.61
2022-11-08T11:30:30.454Z,18.64
2022-11-08T11:31:37.235Z,18.68
2022-11-08T11:32:39.999Z,18.70
2022-11-08T11:33:48.857Z,18.81
2022-11-08T11:34:55.067Z,18.79
2022-11-08T11:36:10.692Z,18.70
2022-11-08T11:37:20.823Z,18.63
2022-11-08T11:38:56.789Z,18.60
2022-11-08T11:40:21.333Z,18.48
2022-11-08T11:41:30.128Z,18.50
2022-11-08T11:42:46.562Z,18.52
2022-11-08T11:43:54.671Z,18.65
2022-11-08T11:45:08.522Z,18.64
2022-11-08T11:46:23.786Z,18.64
2022-11-08T11:47:48.731Z,18.69
2022-11-08T11:49:01.677Z,18.72
2022-11-08T11:50:17.097Z,18.66
2022-11-08T11:51:18.929Z,18.60
2022-11-08T11:52:20.623Z,18.47
2022-11-08T11:53:28.074Z,18.46
2022-11-08T11:54:33.990Z,18.57
2022-11-08T11:55:57.143Z,18.56
2022-11-08T11:57:08.436Z,18.55
2022-11-08T11:58:21.901Z,18.61
2022-11-08T12:00:00.794Z,18.62
2022-11-08T12:01:18.075Z,18.63
2022-11-08T12:02:29.138Z,18.67
2022-11-08T12:03:30.771Z,18.70
2022-11-08T12:04:57.025Z,18.70
2022-11-08T12:06:14.220Z,18.76
2022-11-08T12:07:25.266Z,18.82
2022-11-08T12:08:52.720Z,18.82
2022-11-08T12:10:12.858Z,18.95
2022-11-08T12:11:39.086Z,18.93
2022-11-08T12:13:17.771Z,18.96
2022-11-08T12:14:37.311Z,18.93
2022-11-08T12:15:49.700Z,18.93
2022-11-08T12:17:05.315Z,18.89
2022-11-08T12:18:42.132Z,18.91
2022-11-08T12:19:46.881Z,18.85
2022-11-08T12:21:09.670Z,18.91
2022-11-08T12:22:17.060Z,18.94
2022-11-08T12:23:47.803Z,18.96
2022-11-08T12:25:24.672Z,18.95
2022-11-08T12:26:44.919Z,18.98
2022-11-08T12:27:46.399Z,19.02
2022-11-08T12:29:25.018Z,18.93
2022-11-08T12:30:41.141Z,18.94
2022-11-08T12:31:52.396Z,18.88
2022-11-08T12:33:31.559Z,18.80
2022-11-08T12:34:57.875Z,18.81
2022-11-08T12:36:15.901Z,18.87
2022-11-08T12:37:20.345Z,18.98
2022-11-08T12:38:51.573Z,18.98
2022-11-08T12:39:58.965Z,18.92
2022-11-08T12:41:07.691Z,18.91
2022-11-08T12:42:44.506Z,18.86
2022-11-08T12:43:48.785Z,18.90
2022-11-08T12:45:19.400Z,18.99
2022-11-08T12:46:21.260Z,19.00
2022-11-08T12:47:46.543Z,19.09
2022-11-08T12:48:53.873Z,19.12
2022-11-08T12:50:20.901Z,19.17
2022-11-08T12:51:53.349Z,19.21
2022-11-08T12:53:06.938Z,19.12
2022-11-08T12:54:42.085Z,19.09
2022-11-08T12:55:47.271Z,19.00
2022-11-08T12:56:51.194Z,19.02
2022-11-08T12:57:54.725Z,19.00
2022-11-08T12:58:56.645Z,18.97
2022-11-08T13:00:05.789Z,18.96
2022-11-08T13:01:13.809Z,18.97
2022-11-08T13:02:21.083Z,18.96
2022-11-08T13:03:42.910Z,18.96
2022-11-08T13:04:50.412Z,18.96
2022-11-08T13:06:42.425Z,18.98
2022-11-08T13:07:52.260Z,19.00
2022-11-08T13:09:15.137Z,19.07
2022-11-08T13:10:47.607Z,19.11
2022-11-08T13:12:13.518Z,19.21
2022-11-08T13:13:32.876Z,19.20
2022-11-08T13:14:40.050Z,19.26
2022-11-08T13:16:18.283Z,19.25
2022-11-08T13:17:27.294Z,19.20
2022-11-08T13:18:34.127Z,19.13
2022-11-08T13:19:47.921Z,19.17
2022-11-08T13:20:50.221Z,19.23
2022-11-08T13:21:51.945Z,19.35
2022-11-08T13:23:00.897Z,19.31
2022-11-08T13:24:09.999Z,19.30
2022-11-08T13:25:23.792Z,19.27
2022-11-08T13:26:26.242Z,19.24
2022-11-08T13:27:36.916Z,19.24
2022-11-08T13:28:41.588Z,19.32
2022-11-08T13:29:43.158Z,19.24
2022-11-08T13:30:45.987Z,19.21
2022-11-08T13:32:43.605Z,19.29
2022-11-08T13:34:11.146Z,19.27
2022-11-08T13:35:30.264Z,19.20
2022-11-08T13:36:40.612Z,19.17
2022-11-08T13:38:00.249Z,19.17
2022-11-08T13:39:40.278Z,19.16
2022-11-08T13:41:06.907Z,19.20
2022-11-08T13:42:17.647Z,19.20
2022-11-08T13:43:29.644Z,19.19
2022-11-08T13:44:58.017Z,19.20
2022-11-08T13:46:27.373Z,19.11
2022-11-08T13:47:31.940Z,19.16
2022-11-08T13:48:36.096Z,19.29
2022-11-08T13:49:37.698Z,19.34
2022-11-08T13:50:46.622Z,19.33
2022-11-08T13:51:48.389Z,19.30
2022-11-08T13:53:25.199Z,19.20
2022-11-08T13:54:31.096Z,19.12
2022-11-08T13:55:41.946Z,19.06
2022-11-08T13:56:46.782Z,19.04
2022-11-08T13:57:57.470Z,19.05
2022-11-08T13:58:59.024Z,19.05
2022-11-08T14:00:00.678Z,19.09
2022-11-08T14:01:06.672Z,19.11
2022-11-08T14:02:32.181Z,19.13
2022-11-08T14:03:33.691Z,19.20
2022-11-08T14:04:40.239Z,19.20
2022-11-08T14:05:47.524Z,19.23
2022-11-08T14:07:23.929Z,19.25
2022-11-08T14:08:30.607Z,19.23
2022-11-08T14:09:43.267Z,19.27
2022-11-08T14:11:03.372Z,19.29
2022-11-08T14:12:07.554Z,19.21
2022-11-08T14:13:30.412Z,19.23
2022-11-08T14:14:38.058Z,19.29
2022-11-08T14:16:15.200Z,19.27
2022-11-08T14:17:48.845Z,19.32
2022-11-08T14:18:50.446Z,19.32
2022-11-08T14:19:52.910Z,19.31
2022-11-08T14:20:55.191Z,19.28